sensor_id;sensor_type;location;lat;lon;timestamp;P1;durP1;ratioP1;P2;durP2;ratioP2
77788;SDS011;70537;44.384;0.512;2023-06-22T00:02:18;2.25;;;1.00;;
77788;SDS011;70537;44.384;0.512;2023-06-22T00:04:44;1.02;;;0.82;;
77788;SDS011;70537;44.384;0.512;2023-06-22T00:07:09;2.90;;;0.93;;
77788;SDS011;70537;44.384;0.512;2023-06-22T00:09:35;2.35;;;1.00;;
77788;SDS011;70537;44.384;0.512;2023-06-22T00:12:01;3.40;;;0.93;;
77788;SDS011;70537;44.384;0.512;2023-06-22T00:14:26;5.43;;;1.63;;
77788;SDS011;70537;44.384;0.512;2023-06-22T00:16:52;3.28;;;0.98;;
77788;SDS011;70537;44.384;0.512;2023-06-22T00:19:23;5.20;;;1.55;;
77788;SDS011;70537;44.384;0.512;2023-06-22T00:21:50;2.55;;;1.50;;
77788;SDS011;70537;44.384;0.512;2023-06-22T00:24:19;4.30;;;1.52;;
77788;SDS011;70537;44.384;0.512;2023-06-22T00:26:45;2.92;;;1.55;;
77788;SDS011;70537;44.384;0.512;2023-06-22T00:29:11;2.47;;;1.67;;
77788;SDS011;70537;44.384;0.512;2023-06-22T00:31:36;4.85;;;1.95;;
77788;SDS011;70537;44.384;0.512;2023-06-22T00:34:02;3.30;;;1.58;;
77788;SDS011;70537;44.384;0.512;2023-06-22T00:36:27;3.33;;;1.80;;
77788;SDS011;70537;44.384;0.512;2023-06-22T00:38:53;6.47;;;1.90;;
77788;SDS011;70537;44.384;0.512;2023-06-22T00:41:18;3.13;;;1.27;;
77788;SDS011;70537;44.384;0.512;2023-06-22T00:43:45;4.18;;;2.00;;
77788;SDS011;70537;44.384;0.512;2023-06-22T00:46:10;6.18;;;2.70;;
77788;SDS011;70537;44.384;0.512;2023-06-22T00:48:36;2.63;;;2.40;;
77788;SDS011;70537;44.384;0.512;2023-06-22T00:51:02;7.95;;;2.67;;
77788;SDS011;70537;44.384;0.512;2023-06-22T00:53:28;3.08;;;2.00;;
77788;SDS011;70537;44.384;0.512;2023-06-22T00:55:53;2.83;;;1.85;;
77788;SDS011;70537;44.384;0.512;2023-06-22T00:58:20;5.60;;;2.28;;
77788;SDS011;70537;44.384;0.512;2023-06-22T01:00:47;3.90;;;3.17;;
77788;SDS011;70537;44.384;0.512;2023-06-22T01:03:13;4.13;;;3.05;;
77788;SDS011;70537;44.384;0.512;2023-06-22T01:05:39;4.85;;;2.88;;
77788;SDS011;70537;44.384;0.512;2023-06-22T01:16:24;5.75;;;2.88;;
77788;SDS011;70537;44.384;0.512;2023-06-22T01:18:53;6.93;;;3.35;;
77788;SDS011;70537;44.384;0.512;2023-06-22T01:21:22;9.45;;;4.05;;
77788;SDS011;70537;44.384;0.512;2023-06-22T01:28:59;7.25;;;5.07;;
77788;SDS011;70537;44.384;0.512;2023-06-22T01:31:28;11.05;;;5.20;;
77788;SDS011;70537;44.384;0.512;2023-06-22T01:34:03;13.30;;;5.65;;
77788;SDS011;70537;44.384;0.512;2023-06-22T01:36:31;8.20;;;4.65;;
77788;SDS011;70537;44.384;0.512;2023-06-22T01:38:58;9.77;;;5.57;;
77788;SDS011;70537;44.384;0.512;2023-06-22T01:41:25;12.43;;;5.60;;
77788;SDS011;70537;44.384;0.512;2023-06-22T01:46:18;6.03;;;3.97;;
77788;SDS011;70537;44.384;0.512;2023-06-22T01:48:45;6.82;;;4.60;;
77788;SDS011;70537;44.384;0.512;2023-06-22T01:51:11;5.47;;;3.75;;
77788;SDS011;70537;44.384;0.512;2023-06-22T01:53:37;7.28;;;3.20;;
77788;SDS011;70537;44.384;0.512;2023-06-22T01:56:03;5.03;;;3.53;;
77788;SDS011;70537;44.384;0.512;2023-06-22T01:58:30;3.28;;;2.92;;
77788;SDS011;70537;44.384;0.512;2023-06-22T02:01:10;6.72;;;3.42;;
77788;SDS011;70537;44.384;0.512;2023-06-22T02:03:44;4.88;;;2.75;;
77788;SDS011;70537;44.384;0.512;2023-06-22T02:06:17;3.33;;;3.03;;
77788;SDS011;70537;44.384;0.512;2023-06-22T02:08:51;2.78;;;2.28;;
77788;SDS011;70537;44.384;0.512;2023-06-22T02:11:22;6.45;;;2.90;;
77788;SDS011;70537;44.384;0.512;2023-06-22T02:13:50;5.32;;;2.80;;
77788;SDS011;70537;44.384;0.512;2023-06-22T02:16:16;2.72;;;2.03;;
77788;SDS011;70537;44.384;0.512;2023-06-22T02:18:50;4.22;;;2.80;;
77788;SDS011;70537;44.384;0.512;2023-06-22T02:21:19;3.17;;;2.30;;
77788;SDS011;70537;44.384;0.512;2023-06-22T02:23:45;3.03;;;2.22;;
77788;SDS011;70537;44.384;0.512;2023-06-22T02:26:11;3.42;;;2.35;;
77788;SDS011;70537;44.384;0.512;2023-06-22T02:28:37;3.97;;;2.42;;
77788;SDS011;70537;44.384;0.512;2023-06-22T02:31:03;5.25;;;2.35;;
77788;SDS011;70537;44.384;0.512;2023-06-22T02:33:28;5.38;;;2.70;;
77788;SDS011;70537;44.384;0.512;2023-06-22T02:35:54;3.53;;;2.35;;
77788;SDS011;70537;44.384;0.512;2023-06-22T02:38:19;3.97;;;2.10;;
77788;SDS011;70537;44.384;0.512;2023-06-22T02:40:45;2.55;;;1.65;;
77788;SDS011;70537;44.384;0.512;2023-06-22T02:43:11;2.80;;;1.80;;
77788;SDS011;70537;44.384;0.512;2023-06-22T02:45:37;4.65;;;2.22;;
77788;SDS011;70537;44.384;0.512;2023-06-22T02:48:02;3.03;;;1.92;;
77788;SDS011;70537;44.384;0.512;2023-06-22T02:50:28;3.10;;;2.00;;
77788;SDS011;70537;44.384;0.512;2023-06-22T02:52:53;3.80;;;1.95;;
77788;SDS011;70537;44.384;0.512;2023-06-22T02:55:19;2.47;;;1.83;;
77788;SDS011;70537;44.384;0.512;2023-06-22T02:57:44;2.50;;;1.80;;
77788;SDS011;70537;44.384;0.512;2023-06-22T03:00:11;3.38;;;1.75;;
77788;SDS011;70537;44.384;0.512;2023-06-22T03:02:48;2.83;;;1.55;;
77788;SDS011;70537;44.384;0.512;2023-06-22T03:05:14;3.08;;;1.83;;
77788;SDS011;70537;44.384;0.512;2023-06-22T03:07:43;1.30;;;0.90;;
77788;SDS011;70537;44.384;0.512;2023-06-22T03:10:09;2.30;;;1.52;;
77788;SDS011;70537;44.384;0.512;2023-06-22T03:12:37;2.30;;;1.52;;
77788;SDS011;70537;44.384;0.512;2023-06-22T03:15:04;2.78;;;1.98;;
77788;SDS011;70537;44.384;0.512;2023-06-22T03:17:33;1.85;;;1.23;;
77788;SDS011;70537;44.384;0.512;2023-06-22T03:20:00;1.63;;;1.08;;
77788;SDS011;70537;44.384;0.512;2023-06-22T03:22:25;2.60;;;1.45;;
77788;SDS011;70537;44.384;0.512;2023-06-22T03:24:51;4.13;;;1.65;;
77788;SDS011;70537;44.384;0.512;2023-06-22T03:27:16;1.33;;;0.98;;
77788;SDS011;70537;44.384;0.512;2023-06-22T03:29:43;1.77;;;0.85;;
77788;SDS011;70537;44.384;0.512;2023-06-22T03:32:09;2.05;;;0.98;;
77788;SDS011;70537;44.384;0.512;2023-06-22T03:34:35;1.30;;;0.93;;
77788;SDS011;70537;44.384;0.512;2023-06-22T03:37:03;1.65;;;1.10;;
77788;SDS011;70537;44.384;0.512;2023-06-22T03:39:29;3.35;;;1.63;;
77788;SDS011;70537;44.384;0.512;2023-06-22T03:41:55;1.80;;;0.80;;
77788;SDS011;70537;44.384;0.512;2023-06-22T03:44:20;1.35;;;0.68;;
77788;SDS011;70537;44.384;0.512;2023-06-22T03:46:46;2.80;;;0.95;;
77788;SDS011;70537;44.384;0.512;2023-06-22T03:49:11;2.03;;;0.70;;
77788;SDS011;70537;44.384;0.512;2023-06-22T03:51:37;1.70;;;1.10;;
77788;SDS011;70537;44.384;0.512;2023-06-22T03:54:02;1.27;;;0.73;;
77788;SDS011;70537;44.384;0.512;2023-06-22T03:56:28;2.72;;;0.70;;
77788;SDS011;70537;44.384;0.512;2023-06-22T03:58:53;1.40;;;0.77;;
77788;SDS011;70537;44.384;0.512;2023-06-22T04:01:19;0.95;;;0.65;;
77788;SDS011;70537;44.384;0.512;2023-06-22T04:03:44;2.22;;;0.65;;
77788;SDS011;70537;44.384;0.512;2023-06-22T04:06:10;1.85;;;0.90;;
77788;SDS011;70537;44.384;0.512;2023-06-22T04:08:35;2.40;;;0.77;;
77788;SDS011;70537;44.384;0.512;2023-06-22T04:11:01;0.93;;;0.70;;
77788;SDS011;70537;44.384;0.512;2023-06-22T04:13:26;4.50;;;0.73;;
77788;SDS011;70537;44.384;0.512;2023-06-22T04:15:52;0.80;;;0.70;;
77788;SDS011;70537;44.384;0.512;2023-06-22T04:18:17;1.45;;;1.15;;
77788;SDS011;70537;44.384;0.512;2023-06-22T04:20:43;0.93;;;0.40;;
77788;SDS011;70537;44.384;0.512;2023-06-22T04:23:12;1.58;;;1.00;;
77788;SDS011;70537;44.384;0.512;2023-06-22T04:25:37;3.63;;;0.70;;
77788;SDS011;70537;44.384;0.512;2023-06-22T04:28:04;1.05;;;0.95;;
77788;SDS011;70537;44.384;0.512;2023-06-22T04:30:29;3.25;;;0.63;;
77788;SDS011;70537;44.384;0.512;2023-06-22T04:32:56;0.75;;;0.50;;
77788;SDS011;70537;44.384;0.512;2023-06-22T04:35:25;1.33;;;1.20;;
77788;SDS011;70537;44.384;0.512;2023-06-22T04:37:52;3.17;;;0.80;;
77788;SDS011;70537;44.384;0.512;2023-06-22T04:40:21;1.77;;;1.00;;
77788;SDS011;70537;44.384;0.512;2023-06-22T04:42:49;2.60;;;1.27;;
77788;SDS011;70537;44.384;0.512;2023-06-22T04:45:18;1.33;;;1.02;;
77788;SDS011;70537;44.384;0.512;2023-06-22T04:47:44;1.80;;;1.63;;
77788;SDS011;70537;44.384;0.512;2023-06-22T04:50:11;1.77;;;0.90;;
77788;SDS011;70537;44.384;0.512;2023-06-22T04:52:37;1.30;;;1.02;;
77788;SDS011;70537;44.384;0.512;2023-06-22T04:55:02;1.35;;;1.10;;
77788;SDS011;70537;44.384;0.512;2023-06-22T04:57:28;1.83;;;1.10;;
77788;SDS011;70537;44.384;0.512;2023-06-22T04:59:57;1.95;;;0.98;;
77788;SDS011;70537;44.384;0.512;2023-06-22T05:02:39;3.25;;;1.02;;
77788;SDS011;70537;44.384;0.512;2023-06-22T05:05:05;1.60;;;0.85;;
77788;SDS011;70537;44.384;0.512;2023-06-22T05:07:35;4.03;;;1.30;;
77788;SDS011;70537;44.384;0.512;2023-06-22T05:10:01;3.03;;;1.45;;
77788;SDS011;70537;44.384;0.512;2023-06-22T05:12:28;3.20;;;2.03;;
77788;SDS011;70537;44.384;0.512;2023-06-22T05:14:55;2.45;;;0.98;;
77788;SDS011;70537;44.384;0.512;2023-06-22T05:17:20;4.22;;;1.58;;
77788;SDS011;70537;44.384;0.512;2023-06-22T05:19:46;2.35;;;1.45;;
77788;SDS011;70537;44.384;0.512;2023-06-22T05:22:15;6.43;;;1.67;;
77788;SDS011;70537;44.384;0.512;2023-06-22T05:24:41;2.38;;;1.10;;
77788;SDS011;70537;44.384;0.512;2023-06-22T05:27:07;4.43;;;1.10;;
77788;SDS011;70537;44.384;0.512;2023-06-22T05:29:32;4.03;;;1.70;;
77788;SDS011;70537;44.384;0.512;2023-06-22T05:31:58;2.53;;;1.52;;
77788;SDS011;70537;44.384;0.512;2023-06-22T05:34:24;2.40;;;1.23;;
77788;SDS011;70537;44.384;0.512;2023-06-22T05:36:49;2.13;;;1.48;;
77788;SDS011;70537;44.384;0.512;2023-06-22T05:39:15;1.80;;;1.40;;
77788;SDS011;70537;44.384;0.512;2023-06-22T05:41:40;2.40;;;1.40;;
77788;SDS011;70537;44.384;0.512;2023-06-22T05:44:06;5.50;;;1.65;;
77788;SDS011;70537;44.384;0.512;2023-06-22T05:46:32;4.22;;;1.55;;
77788;SDS011;70537;44.384;0.512;2023-06-22T05:48:57;1.58;;;1.38;;
77788;SDS011;70537;44.384;0.512;2023-06-22T05:51:23;2.42;;;1.45;;
77788;SDS011;70537;44.384;0.512;2023-06-22T05:53:48;4.47;;;1.88;;
77788;SDS011;70537;44.384;0.512;2023-06-22T05:56:18;2.83;;;2.08;;
77788;SDS011;70537;44.384;0.512;2023-06-22T05:58:43;4.15;;;1.65;;
77788;SDS011;70537;44.384;0.512;2023-06-22T06:01:09;4.85;;;1.80;;
77788;SDS011;70537;44.384;0.512;2023-06-22T06:03:35;3.45;;;1.70;;
77788;SDS011;70537;44.384;0.512;2023-06-22T06:06:06;3.28;;;2.00;;
77788;SDS011;70537;44.384;0.512;2023-06-22T06:08:32;2.30;;;1.60;;
77788;SDS011;70537;44.384;0.512;2023-06-22T06:10:58;5.95;;;1.67;;
77788;SDS011;70537;44.384;0.512;2023-06-22T06:13:23;3.72;;;1.80;;
77788;SDS011;70537;44.384;0.512;2023-06-22T06:15:49;4.25;;;1.60;;
77788;SDS011;70537;44.384;0.512;2023-06-22T06:18:16;5.95;;;2.28;;
77788;SDS011;70537;44.384;0.512;2023-06-22T06:20:42;2.72;;;1.80;;
77788;SDS011;70537;44.384;0.512;2023-06-22T06:23:07;2.95;;;1.33;;
77788;SDS011;70537;44.384;0.512;2023-06-22T06:25:33;4.43;;;1.90;;
77788;SDS011;70537;44.384;0.512;2023-06-22T06:27:58;3.95;;;1.73;;
77788;SDS011;70537;44.384;0.512;2023-06-22T06:30:23;2.83;;;1.80;;
77788;SDS011;70537;44.384;0.512;2023-06-22T06:32:49;3.67;;;2.10;;
77788;SDS011;70537;44.384;0.512;2023-06-22T06:35:15;4.40;;;2.67;;
77788;SDS011;70537;44.384;0.512;2023-06-22T06:37:42;3.05;;;1.80;;
77788;SDS011;70537;44.384;0.512;2023-06-22T06:40:10;3.75;;;1.95;;
77788;SDS011;70537;44.384;0.512;2023-06-22T06:42:40;4.32;;;2.15;;
77788;SDS011;70537;44.384;0.512;2023-06-22T06:45:09;3.83;;;2.33;;
77788;SDS011;70537;44.384;0.512;2023-06-22T06:47:38;3.40;;;1.85;;
77788;SDS011;70537;44.384;0.512;2023-06-22T06:50:05;2.95;;;2.65;;
77788;SDS011;70537;44.384;0.512;2023-06-22T06:52:31;2.45;;;1.73;;
77788;SDS011;70537;44.384;0.512;2023-06-22T06:54:57;3.35;;;1.60;;
77788;SDS011;70537;44.384;0.512;2023-06-22T06:57:23;3.10;;;2.10;;
77788;SDS011;70537;44.384;0.512;2023-06-22T06:59:49;2.03;;;1.75;;
77788;SDS011;70537;44.384;0.512;2023-06-22T07:02:15;3.25;;;2.17;;
77788;SDS011;70537;44.384;0.512;2023-06-22T07:04:41;3.05;;;1.85;;
77788;SDS011;70537;44.384;0.512;2023-06-22T07:07:06;6.05;;;2.45;;
77788;SDS011;70537;44.384;0.512;2023-06-22T07:09:32;8.52;;;2.10;;
77788;SDS011;70537;44.384;0.512;2023-06-22T07:11:57;3.95;;;2.35;;
77788;SDS011;70537;44.384;0.512;2023-06-22T07:14:23;8.60;;;2.33;;
77788;SDS011;70537;44.384;0.512;2023-06-22T07:16:48;4.63;;;2.10;;
77788;SDS011;70537;44.384;0.512;2023-06-22T07:19:14;4.10;;;1.30;;
77788;SDS011;70537;44.384;0.512;2023-06-22T07:21:39;2.40;;;1.80;;
77788;SDS011;70537;44.384;0.512;2023-06-22T07:24:05;9.02;;;2.55;;
77788;SDS011;70537;44.384;0.512;2023-06-22T07:26:32;3.05;;;2.35;;
77788;SDS011;70537;44.384;0.512;2023-06-22T07:28:57;3.42;;;2.60;;
77788;SDS011;70537;44.384;0.512;2023-06-22T07:31:26;4.78;;;2.40;;
77788;SDS011;70537;44.384;0.512;2023-06-22T07:33:52;4.82;;;1.80;;
77788;SDS011;70537;44.384;0.512;2023-06-22T07:36:17;3.17;;;2.53;;
77788;SDS011;70537;44.384;0.512;2023-06-22T07:38:43;4.68;;;2.40;;
77788;SDS011;70537;44.384;0.512;2023-06-22T07:41:09;5.60;;;2.78;;
77788;SDS011;70537;44.384;0.512;2023-06-22T07:43:34;3.33;;;2.05;;
77788;SDS011;70537;44.384;0.512;2023-06-22T07:46:04;4.00;;;1.98;;
77788;SDS011;70537;44.384;0.512;2023-06-22T07:48:30;4.40;;;1.83;;
77788;SDS011;70537;44.384;0.512;2023-06-22T07:50:56;5.20;;;2.00;;
77788;SDS011;70537;44.384;0.512;2023-06-22T07:53:21;4.00;;;2.25;;
77788;SDS011;70537;44.384;0.512;2023-06-22T07:55:48;4.15;;;2.47;;
77788;SDS011;70537;44.384;0.512;2023-06-22T07:58:14;2.95;;;2.55;;
77788;SDS011;70537;44.384;0.512;2023-06-22T08:00:40;4.72;;;2.35;;
77788;SDS011;70537;44.384;0.512;2023-06-22T08:03:06;4.82;;;2.50;;
77788;SDS011;70537;44.384;0.512;2023-06-22T08:05:32;6.63;;;2.40;;
77788;SDS011;70537;44.384;0.512;2023-06-22T08:07:58;3.60;;;1.83;;
77788;SDS011;70537;44.384;0.512;2023-06-22T08:10:24;3.28;;;1.67;;
77788;SDS011;70537;44.384;0.512;2023-06-22T08:12:49;3.13;;;2.45;;
77788;SDS011;70537;44.384;0.512;2023-06-22T08:15:16;3.13;;;1.83;;
77788;SDS011;70537;44.384;0.512;2023-06-22T08:17:43;2.83;;;2.17;;
77788;SDS011;70537;44.384;0.512;2023-06-22T08:20:09;2.53;;;1.83;;
77788;SDS011;70537;44.384;0.512;2023-06-22T08:25:02;2.67;;;1.90;;
77788;SDS011;70537;44.384;0.512;2023-06-22T08:27:29;2.65;;;1.95;;
77788;SDS011;70537;44.384;0.512;2023-06-22T08:29:57;2.22;;;1.60;;
77788;SDS011;70537;44.384;0.512;2023-06-22T08:32:25;3.05;;;1.65;;
77788;SDS011;70537;44.384;0.512;2023-06-22T08:34:52;3.00;;;2.40;;
77788;SDS011;70537;44.384;0.512;2023-06-22T08:37:19;2.90;;;2.13;;
77788;SDS011;70537;44.384;0.512;2023-06-22T08:39:45;3.38;;;1.98;;
77788;SDS011;70537;44.384;0.512;2023-06-22T08:42:11;3.08;;;1.63;;
77788;SDS011;70537;44.384;0.512;2023-06-22T08:44:38;2.22;;;1.92;;
77788;SDS011;70537;44.384;0.512;2023-06-22T08:47:04;2.35;;;1.70;;
77788;SDS011;70537;44.384;0.512;2023-06-22T08:49:29;3.38;;;2.13;;
77788;SDS011;70537;44.384;0.512;2023-06-22T08:51:55;4.32;;;2.20;;
77788;SDS011;70537;44.384;0.512;2023-06-22T08:54:22;2.78;;;2.25;;
77788;SDS011;70537;44.384;0.512;2023-06-22T08:56:48;3.22;;;2.08;;
77788;SDS011;70537;44.384;0.512;2023-06-22T08:59:13;4.20;;;2.90;;
77788;SDS011;70537;44.384;0.512;2023-06-22T09:01:38;6.07;;;3.22;;
77788;SDS011;70537;44.384;0.512;2023-06-22T09:04:04;4.10;;;2.78;;
77788;SDS011;70537;44.384;0.512;2023-06-22T09:06:31;4.55;;;2.45;;
77788;SDS011;70537;44.384;0.512;2023-06-22T09:08:57;5.07;;;3.40;;
77788;SDS011;70537;44.384;0.512;2023-06-22T09:13:50;4.65;;;3.08;;
77788;SDS011;70537;44.384;0.512;2023-06-22T09:16:17;4.35;;;2.53;;
77788;SDS011;70537;44.384;0.512;2023-06-22T09:18:42;4.53;;;2.30;;
77788;SDS011;70537;44.384;0.512;2023-06-22T09:21:08;6.82;;;4.75;;
77788;SDS011;70537;44.384;0.512;2023-06-22T09:23:34;7.75;;;2.55;;
77788;SDS011;70537;44.384;0.512;2023-06-22T09:25:59;4.95;;;3.40;;
77788;SDS011;70537;44.384;0.512;2023-06-22T09:28:25;6.43;;;2.92;;
77788;SDS011;70537;44.384;0.512;2023-06-22T09:30:50;3.67;;;1.98;;
77788;SDS011;70537;44.384;0.512;2023-06-22T09:33:16;4.95;;;2.78;;
77788;SDS011;70537;44.384;0.512;2023-06-22T09:35:44;4.63;;;2.72;;
77788;SDS011;70537;44.384;0.512;2023-06-22T09:38:10;4.38;;;2.55;;
77788;SDS011;70537;44.384;0.512;2023-06-22T09:40:35;3.65;;;3.35;;
77788;SDS011;70537;44.384;0.512;2023-06-22T09:43:05;3.22;;;2.92;;
77788;SDS011;70537;44.384;0.512;2023-06-22T09:45:30;3.17;;;2.78;;
77788;SDS011;70537;44.384;0.512;2023-06-22T09:47:56;3.85;;;3.35;;
77788;SDS011;70537;44.384;0.512;2023-06-22T09:50:21;3.53;;;3.03;;
77788;SDS011;70537;44.384;0.512;2023-06-22T09:52:47;4.47;;;2.95;;
77788;SDS011;70537;44.384;0.512;2023-06-22T09:55:16;3.47;;;2.50;;
77788;SDS011;70537;44.384;0.512;2023-06-22T09:57:41;5.68;;;2.88;;
77788;SDS011;70537;44.384;0.512;2023-06-22T10:00:07;4.57;;;2.65;;
77788;SDS011;70537;44.384;0.512;2023-06-22T10:02:38;4.15;;;3.22;;
77788;SDS011;70537;44.384;0.512;2023-06-22T10:05:04;3.72;;;2.80;;
77788;SDS011;70537;44.384;0.512;2023-06-22T10:07:30;6.15;;;3.67;;
77788;SDS011;70537;44.384;0.512;2023-06-22T10:09:56;7.68;;;4.40;;
77788;SDS011;70537;44.384;0.512;2023-06-22T10:12:21;3.65;;;3.13;;
77788;SDS011;70537;44.384;0.512;2023-06-22T10:14:47;4.43;;;2.50;;
77788;SDS011;70537;44.384;0.512;2023-06-22T10:17:12;6.70;;;3.10;;
77788;SDS011;70537;44.384;0.512;2023-06-22T10:19:37;4.88;;;2.63;;
77788;SDS011;70537;44.384;0.512;2023-06-22T10:22:04;5.07;;;2.97;;
77788;SDS011;70537;44.384;0.512;2023-06-22T10:24:30;5.05;;;2.33;;
77788;SDS011;70537;44.384;0.512;2023-06-22T10:26:55;5.97;;;3.10;;
77788;SDS011;70537;44.384;0.512;2023-06-22T10:29:21;5.68;;;3.15;;
77788;SDS011;70537;44.384;0.512;2023-06-22T10:31:47;6.28;;;2.53;;
77788;SDS011;70537;44.384;0.512;2023-06-22T10:34:12;5.97;;;3.08;;
77788;SDS011;70537;44.384;0.512;2023-06-22T10:36:38;4.68;;;3.25;;
77788;SDS011;70537;44.384;0.512;2023-06-22T10:39:04;5.10;;;2.70;;
77788;SDS011;70537;44.384;0.512;2023-06-22T10:41:29;3.42;;;2.78;;
77788;SDS011;70537;44.384;0.512;2023-06-22T10:43:55;3.85;;;2.42;;
77788;SDS011;70537;44.384;0.512;2023-06-22T10:46:24;4.15;;;3.03;;
77788;SDS011;70537;44.384;0.512;2023-06-22T10:48:50;4.15;;;2.53;;
77788;SDS011;70537;44.384;0.512;2023-06-22T10:51:19;7.97;;;3.47;;
77788;SDS011;70537;44.384;0.512;2023-06-22T10:53:44;2.40;;;2.00;;
77788;SDS011;70537;44.384;0.512;2023-06-22T10:56:10;3.45;;;2.88;;
77788;SDS011;70537;44.384;0.512;2023-06-22T10:58:35;2.85;;;2.53;;
77788;SDS011;70537;44.384;0.512;2023-06-22T11:01:01;5.70;;;2.45;;
77788;SDS011;70537;44.384;0.512;2023-06-22T11:03:27;4.30;;;2.45;;
77788;SDS011;70537;44.384;0.512;2023-06-22T11:05:53;2.72;;;2.28;;
77788;SDS011;70537;44.384;0.512;2023-06-22T11:08:18;2.85;;;2.22;;
77788;SDS011;70537;44.384;0.512;2023-06-22T11:10:44;2.45;;;2.25;;
77788;SDS011;70537;44.384;0.512;2023-06-22T11:13:10;5.20;;;2.30;;
77788;SDS011;70537;44.384;0.512;2023-06-22T11:15:36;3.10;;;2.20;;
77788;SDS011;70537;44.384;0.512;2023-06-22T11:18:01;3.67;;;2.30;;
77788;SDS011;70537;44.384;0.512;2023-06-22T11:20:27;7.22;;;2.30;;
77788;SDS011;70537;44.384;0.512;2023-06-22T11:22:52;5.25;;;2.45;;
77788;SDS011;70537;44.384;0.512;2023-06-22T11:25:18;3.70;;;2.15;;
77788;SDS011;70537;44.384;0.512;2023-06-22T11:27:43;3.80;;;2.20;;
77788;SDS011;70537;44.384;0.512;2023-06-22T11:30:09;4.07;;;2.42;;
77788;SDS011;70537;44.384;0.512;2023-06-22T11:32:35;2.70;;;2.35;;
77788;SDS011;70537;44.384;0.512;2023-06-22T11:35:01;4.70;;;2.67;;
77788;SDS011;70537;44.384;0.512;2023-06-22T11:37:26;2.90;;;2.00;;
77788;SDS011;70537;44.384;0.512;2023-06-22T11:39:51;3.08;;;2.47;;
77788;SDS011;70537;44.384;0.512;2023-06-22T11:42:19;4.40;;;2.40;;
77788;SDS011;70537;44.384;0.512;2023-06-22T11:44:45;2.92;;;2.30;;
77788;SDS011;70537;44.384;0.512;2023-06-22T11:47:11;3.65;;;2.00;;
77788;SDS011;70537;44.384;0.512;2023-06-22T11:49:36;2.65;;;2.42;;
77788;SDS011;70537;44.384;0.512;2023-06-22T11:52:02;4.93;;;2.38;;
77788;SDS011;70537;44.384;0.512;2023-06-22T11:54:27;2.47;;;2.28;;
77788;SDS011;70537;44.384;0.512;2023-06-22T11:56:53;3.88;;;2.20;;
77788;SDS011;70537;44.384;0.512;2023-06-22T11:59:18;2.88;;;2.15;;
77788;SDS011;70537;44.384;0.512;2023-06-22T12:01:44;2.67;;;2.38;;
77788;SDS011;70537;44.384;0.512;2023-06-22T12:04:09;3.15;;;2.15;;
77788;SDS011;70537;44.384;0.512;2023-06-22T12:06:37;3.33;;;1.88;;
77788;SDS011;70537;44.384;0.512;2023-06-22T12:09:06;3.83;;;2.60;;
77788;SDS011;70537;44.384;0.512;2023-06-22T12:11:32;4.13;;;2.33;;
77788;SDS011;70537;44.384;0.512;2023-06-22T12:13:58;4.13;;;2.40;;
77788;SDS011;70537;44.384;0.512;2023-06-22T12:16:27;4.00;;;2.22;;
77788;SDS011;70537;44.384;0.512;2023-06-22T12:18:53;2.72;;;1.98;;
77788;SDS011;70537;44.384;0.512;2023-06-22T12:21:18;4.25;;;2.88;;
77788;SDS011;70537;44.384;0.512;2023-06-22T12:23:44;3.45;;;2.47;;
77788;SDS011;70537;44.384;0.512;2023-06-22T12:26:10;3.55;;;2.72;;
77788;SDS011;70537;44.384;0.512;2023-06-22T12:28:35;3.58;;;2.42;;
77788;SDS011;70537;44.384;0.512;2023-06-22T12:31:01;4.78;;;2.88;;
77788;SDS011;70537;44.384;0.512;2023-06-22T12:33:26;3.72;;;2.15;;
77788;SDS011;70537;44.384;0.512;2023-06-22T12:35:52;10.40;;;4.75;;
77788;SDS011;70537;44.384;0.512;2023-06-22T12:38:17;2.70;;;2.22;;
77788;SDS011;70537;44.384;0.512;2023-06-22T12:40:43;7.38;;;2.85;;
77788;SDS011;70537;44.384;0.512;2023-06-22T12:43:08;4.45;;;2.70;;
77788;SDS011;70537;44.384;0.512;2023-06-22T12:45:34;4.07;;;2.63;;
77788;SDS011;70537;44.384;0.512;2023-06-22T12:48:00;4.00;;;2.55;;
77788;SDS011;70537;44.384;0.512;2023-06-22T12:50:26;3.08;;;2.38;;
77788;SDS011;70537;44.384;0.512;2023-06-22T12:52:51;2.78;;;2.40;;
77788;SDS011;70537;44.384;0.512;2023-06-22T12:55:17;7.53;;;2.08;;
77788;SDS011;70537;44.384;0.512;2023-06-22T12:57:43;3.70;;;1.92;;
77788;SDS011;70537;44.384;0.512;2023-06-22T13:00:08;2.97;;;2.30;;
77788;SDS011;70537;44.384;0.512;2023-06-22T13:02:35;2.75;;;2.15;;
77788;SDS011;70537;44.384;0.512;2023-06-22T13:05:02;2.67;;;2.03;;
77788;SDS011;70537;44.384;0.512;2023-06-22T13:07:30;2.65;;;2.45;;
77788;SDS011;70537;44.384;0.512;2023-06-22T13:09:55;5.88;;;2.53;;
77788;SDS011;70537;44.384;0.512;2023-06-22T13:12:21;2.60;;;2.40;;
77788;SDS011;70537;44.384;0.512;2023-06-22T13:14:47;3.40;;;2.25;;
77788;SDS011;70537;44.384;0.512;2023-06-22T13:17:13;3.58;;;3.03;;
77788;SDS011;70537;44.384;0.512;2023-06-22T13:19:39;2.45;;;2.13;;
77788;SDS011;70537;44.384;0.512;2023-06-22T13:22:05;3.58;;;2.05;;
77788;SDS011;70537;44.384;0.512;2023-06-22T13:24:30;6.25;;;5.13;;
77788;SDS011;70537;44.384;0.512;2023-06-22T13:26:56;3.20;;;2.78;;
77788;SDS011;70537;44.384;0.512;2023-06-22T13:29:21;2.78;;;2.17;;
77788;SDS011;70537;44.384;0.512;2023-06-22T13:31:47;3.45;;;1.83;;
77788;SDS011;70537;44.384;0.512;2023-06-22T13:34:12;4.25;;;1.60;;
77788;SDS011;70537;44.384;0.512;2023-06-22T13:36:38;3.58;;;2.25;;
77788;SDS011;70537;44.384;0.512;2023-06-22T13:39:03;2.65;;;2.33;;
77788;SDS011;70537;44.384;0.512;2023-06-22T13:41:29;10.93;;;1.95;;
77788;SDS011;70537;44.384;0.512;2023-06-22T13:43:55;4.93;;;2.30;;
77788;SDS011;70537;44.384;0.512;2023-06-22T13:46:20;2.47;;;2.28;;
77788;SDS011;70537;44.384;0.512;2023-06-22T13:48:46;6.47;;;2.15;;
77788;SDS011;70537;44.384;0.512;2023-06-22T13:51:11;2.38;;;1.50;;
77788;SDS011;70537;44.384;0.512;2023-06-22T13:53:37;2.70;;;2.10;;
77788;SDS011;70537;44.384;0.512;2023-06-22T13:56:03;2.95;;;2.45;;
77788;SDS011;70537;44.384;0.512;2023-06-22T13:58:28;3.15;;;1.70;;
77788;SDS011;70537;44.384;0.512;2023-06-22T14:00:54;4.15;;;1.52;;
77788;SDS011;70537;44.384;0.512;2023-06-22T14:03:19;2.67;;;2.20;;
77788;SDS011;70537;44.384;0.512;2023-06-22T14:05:45;4.78;;;1.42;;
77788;SDS011;70537;44.384;0.512;2023-06-22T14:08:11;3.47;;;1.92;;
77788;SDS011;70537;44.384;0.512;2023-06-22T14:10:37;3.72;;;2.85;;
77788;SDS011;70537;44.384;0.512;2023-06-22T14:13:02;2.22;;;1.70;;
77788;SDS011;70537;44.384;0.512;2023-06-22T14:15:31;5.53;;;2.42;;
77788;SDS011;70537;44.384;0.512;2023-06-22T14:17:57;4.55;;;2.05;;
77788;SDS011;70537;44.384;0.512;2023-06-22T14:20:22;3.42;;;2.30;;
77788;SDS011;70537;44.384;0.512;2023-06-22T14:22:48;2.17;;;2.00;;
77788;SDS011;70537;44.384;0.512;2023-06-22T14:25:13;3.30;;;1.88;;
77788;SDS011;70537;44.384;0.512;2023-06-22T14:27:39;2.85;;;1.77;;
77788;SDS011;70537;44.384;0.512;2023-06-22T14:30:05;2.75;;;2.55;;
77788;SDS011;70537;44.384;0.512;2023-06-22T14:32:31;3.15;;;1.92;;
77788;SDS011;70537;44.384;0.512;2023-06-22T14:34:56;2.03;;;1.55;;
77788;SDS011;70537;44.384;0.512;2023-06-22T14:37:22;3.70;;;2.00;;
77788;SDS011;70537;44.384;0.512;2023-06-22T14:39:47;2.92;;;1.88;;
77788;SDS011;70537;44.384;0.512;2023-06-22T14:42:13;3.70;;;2.20;;
77788;SDS011;70537;44.384;0.512;2023-06-22T14:44:38;3.10;;;2.10;;
77788;SDS011;70537;44.384;0.512;2023-06-22T14:47:04;2.70;;;2.05;;
77788;SDS011;70537;44.384;0.512;2023-06-22T14:49:30;3.33;;;2.08;;
77788;SDS011;70537;44.384;0.512;2023-06-22T14:51:55;2.38;;;1.80;;
77788;SDS011;70537;44.384;0.512;2023-06-22T14:54:21;2.78;;;2.03;;
77788;SDS011;70537;44.384;0.512;2023-06-22T14:56:47;3.15;;;2.30;;
77788;SDS011;70537;44.384;0.512;2023-06-22T14:59:14;3.58;;;2.05;;
77788;SDS011;70537;44.384;0.512;2023-06-22T15:01:40;7.22;;;2.45;;
77788;SDS011;70537;44.384;0.512;2023-06-22T15:04:05;2.90;;;2.00;;